Time;durP1;ratioP1;P1;durP2;ratioP2;P2;SDS_P1;SDS_P2;PMS_P1;PMS_P2;Temp;Humidity;BMP_temperature;BMP_pressure;BME280_temperature;BME280_humidity;BME280_pressure;Samples;Min_cycle;Max_cycle;Signal;HPM_P1;HPM_P2
2021/12/05 00:21:58;;;;;;;;;;;;;;;;;;5096511;28;19919;-77
2021/12/05 00:24:25;;;;;;;;;;;;;;;;;;5094583;28;19923;-76
2021/12/05 00:26:57;;;;;;;;;;;;;;;;;;5096437;28;20378;-77
2021/12/05 00:29:31;;;;;;;;;;;;;;;;;;5096242;28;19920;-77
2021/12/05 00:45:39;;;;;;;;;;;;;;;;;;5046575;28;20373;-77
2021/12/05 00:48:19;;;;;;;;;;;;;;;;;;5075777;28;20386;-77
2021/12/05 00:56:31;;;;;;;;;;;;;;;;;;5074377;28;19923;-77
2021/12/05 00:59:31;;;;;;;;;;;;;;;;;;5073844;28;20366;-77
2021/12/05 01:15:26;;;;;;;;;;;;;;;;;;5093835;28;19926;-77
2021/12/05 01:18:01;;;;;;;;;;;;;;;;;;5095327;28;19923;-77
2021/12/05 01:20:36;;;;;;;;;;;;;;;;;;5095090;28;19960;-77
2021/12/05 01:25:54;;;;;;;;;;;;;;;;;;5093884;28;20400;-77
2021/12/05 01:28:35;;;;;;;;;;;;;;;;;;5077382;28;19916;-77
2021/12/05 01:31:20;;;;;;;;;;;;;;;;;;5077362;28;19920;-77
2021/12/05 01:34:42;;;;;;;;;;;;;;;;;;5094882;28;19922;-77
2021/12/05 01:36:45;;;;;;;;;;;;;;;;;;5086194;28;20006;-77
2021/12/05 01:57:35;;;;;;;;;;;;;;;;;;5093382;28;19920;-76
2021/12/05 02:00:43;;;;;;;;;;;;;;;;;;5093125;28;19916;-77
2021/12/05 02:30:11;;;;;;;;;;;;;;;;;;5094155;28;20433;-77
2021/12/05 02:32:54;;;;;;;;;;;;;;;;;;5076030;28;19916;-77
2021/12/05 02:35:41;;;;;;;;;;;;;;;;;;5075702;28;19916;-77
2021/12/05 02:43:30;;;;;;;;;;;;;;;;;;5092653;28;19923;-77
2021/12/05 02:45:59;;;;;;;;;;;;;;;;;;5092472;28;19966;-77
2021/12/05 02:48:28;;;;;;;;;;;;;;;;;;5075630;28;20018;-77
2021/12/05 02:50:54;;;;;;;;;;;;;;;;;;5092369;28;20244;-77
2021/12/05 02:53:31;;;;;;;;;;;;;;;;;;5092594;28;19923;-77
2021/12/05 02:55:57;;;;;;;;;;;;;;;;;;5075452;28;19920;-77
2021/12/05 02:58:33;;;;;;;;;;;;;;;;;;5092427;28;20266;-77
2021/12/05 03:03:28;;;;;;;;;;;;;;;;;;5093706;28;20350;-77
2021/12/05 03:06:01;;;;;;;;;;;;;;;;;;5092385;28;19942;-77
2021/12/05 03:08:27;;;;;;;;;;;;;;;;;;5092442;28;20373;-77
2021/12/05 03:10:53;;;;;;;;;;;;;;;;;;5092545;28;19959;-77
2021/12/05 03:13:19;;;;;;;;;;;;;;;;;;5092414;28;19938;-77
2021/12/05 03:15:45;;;;;;;;;;;;;;;;;;5093753;28;19969;-77
2021/12/05 03:18:10;;;;;;;;;;;;;;;;;;5092183;28;19920;-77
2021/12/05 03:20:36;;;;;;;;;;;;;;;;;;5093456;28;20274;-77
2021/12/05 03:23:02;;;;;;;;;;;;;;;;;;5075454;28;19919;-77
2021/12/05 03:25:27;;;;;;;;;;;;;;;;;;5092120;28;19916;-77
2021/12/05 03:27:53;;;;;;;;;;;;;;;;;;5075617;28;19916;-77
2021/12/05 03:30:21;;;;;;;;;;;;;;;;;;5092329;28;19920;-76
2021/12/05 03:32:50;;;;;;;;;;;;;;;;;;5092293;28;19916;-77
2021/12/05 03:35:15;;;;;;;;;;;;;;;;;;5074869;28;19916;-77
2021/12/05 03:37:41;;;;;;;;;;;;;;;;;;5092110;28;19923;-77
2021/12/05 03:40:08;;;;;;;;;;;;;;;;;;5092086;28;20050;-77
2021/12/05 03:42:33;;;;;;;;;;;;;;;;;;5092178;28;19969;-77
2021/12/05 03:45:00;;;;;;;;;;;;;;;;;;5091438;28;19920;-77
2021/12/05 03:47:29;;;;;;;;;;;;;;;;;;5091932;28;19916;-77
2021/12/05 03:49:56;;;;;;;;;;;;;;;;;;5091738;28;19920;-77
2021/12/05 03:52:22;;;;;;;;;;;;;;;;;;5091953;28;19916;-77
2021/12/05 03:54:48;;;;;;;;;;;;;;;;;;5091529;28;19916;-77
2021/12/05 03:57:14;;;;;;;;;;;;;;;;;;5092051;28;19927;-77
2021/12/05 03:59:41;;;;;;;;;;;;;;;;;;5094062;28;20384;-76
2021/12/05 04:02:08;;;;;;;;;;;;;;;;;;5095695;28;19923;-77
2021/12/05 04:04:35;;;;;;;;;;;;;;;;;;5096067;28;19999;-77
2021/12/05 04:07:01;;;;;;;;;;;;;;;;;;5096795;28;19963;-77
2021/12/05 04:09:26;;;;;;;;;;;;;;;;;;5096602;28;20027;-77
2021/12/05 04:12:00;;;;;;;;;;;;;;;;;;5096878;28;19916;-77
2021/12/05 04:14:42;;;;;;;;;;;;;;;;;;5095355;28;19961;-77
2021/12/05 04:17:11;;;;;;;;;;;;;;;;;;5095294;28;19916;-77
2021/12/05 04:19:37;;;;;;;;;;;;;;;;;;5096515;28;20393;-76
2021/12/05 04:22:03;;;;;;;;;;;;;;;;;;5094554;28;19944;-77
2021/12/05 04:24:31;;;;;;;;;;;;;;;;;;5095213;28;20388;-77
2021/12/05 04:26:56;;;;;;;;;;;;;;;;;;5095297;28;19916;-77
2021/12/05 04:29:22;;;;;;;;;;;;;;;;;;5078112;28;20277;-76
2021/12/05 04:31:47;;;;;;;;;;;;;;;;;;5095130;28;19922;-77
2021/12/05 04:34:13;;;;;;;;;;;;;;;;;;5077570;28;19916;-77
2021/12/05 04:36:40;;;;;;;;;;;;;;;;;;5094968;28;20276;-77
2021/12/05 04:39:05;;;;;;;;;;;;;;;;;;5096094;28;19916;-77
2021/12/05 04:41:31;;;;;;;;;;;;;;;;;;5094986;28;20003;-77
2021/12/05 04:43:58;;;;;;;;;;;;;;;;;;5094692;28;20243;-77
2021/12/05 04:46:27;;;;;;;;;;;;;;;;;;5094252;28;19924;-78
2021/12/05 04:48:54;;;;;;;;;;;;;;;;;;5077869;28;19981;-77
2021/12/05 04:51:22;;;;;;;;;;;;;;;;;;5094875;28;19969;-76
2021/12/05 04:53:50;;;;;;;;;;;;;;;;;;5094663;28;19916;-77
2021/12/05 04:56:18;;;;;;;;;;;;;;;;;;5094489;28;19916;-77
2021/12/05 04:58:43;;;;;;;;;;;;;;;;;;5095894;28;19916;-77
2021/12/05 05:01:09;;;;;;;;;;;;;;;;;;5094650;28;19922;-77
2021/12/05 05:03:35;;;;;;;;;;;;;;;;;;5095770;28;19919;-77
2021/12/05 05:06:07;;;;;;;;;;;;;;;;;;5095638;28;19923;-77
2021/12/05 05:08:33;;;;;;;;;;;;;;;;;;5095751;28;19916;-77
2021/12/05 05:10:59;;;;;;;;;;;;;;;;;;5095355;28;20416;-77
2021/12/05 05:13:26;;;;;;;;;;;;;;;;;;5095182;28;19920;-77
2021/12/05 05:15:51;;;;;;;;;;;;;;;;;;5094049;28;20019;-77
2021/12/05 05:18:16;;;;;;;;;;;;;;;;;;5094212;28;20008;-77
2021/12/05 05:20:56;;;;;;;;;;;;;;;;;;5095332;28;20045;-76
2021/12/05 05:23:46;;;;;;;;;;;;;;;;;;5094212;28;19930;-77
2021/12/05 05:47:39;;;;;;;;;;;;;;;;;;5094789;28;20300;-77
2021/12/05 05:50:05;;;;;;;;;;;;;;;;;;5093580;28;19928;-77
2021/12/05 05:52:32;;;;;;;;;;;;;;;;;;5076538;28;19965;-77
2021/12/05 05:54:59;;;;;;;;;;;;;;;;;;5094414;28;19919;-77
2021/12/05 05:57:29;;;;;;;;;;;;;;;;;;5092925;28;20422;-76
2021/12/05 06:05:05;;;;;;;;;;;;;;;;;;5093488;28;19959;-76
2021/12/05 06:07:30;;;;;;;;;;;;;;;;;;5094494;28;20408;-77
2021/12/05 06:09:56;;;;;;;;;;;;;;;;;;5092861;28;19969;-77
2021/12/05 06:12:21;;;;;;;;;;;;;;;;;;5094448;28;19958;-77
2021/12/05 06:14:46;;;;;;;;;;;;;;;;;;5094125;28;20012;-77
2021/12/05 06:17:12;;;;;;;;;;;;;;;;;;5094325;28;20250;-77
2021/12/05 06:19:37;;;;;;;;;;;;;;;;;;5094316;28;19952;-77
2021/12/05 06:22:04;;;;;;;;;;;;;;;;;;5092572;28;19920;-77
2021/12/05 06:24:30;;;;;;;;;;;;;;;;;;5094294;28;19916;-77
2021/12/05 06:26:56;;;;;;;;;;;;;;;;;;5094240;28;19947;-77
2021/12/05 06:29:23;;;;;;;;;;;;;;;;;;5094172;28;19927;-77
2021/12/05 06:32:03;;;;;;;;;;;;;;;;;;5094166;28;19950;-77
2021/12/05 06:42:45;;;;;;;;;;;;;;;;;;5094174;28;20377;-77
2021/12/05 06:47:52;;;;;;;;;;;;;;;;;;5093781;28;19941;-77
2021/12/05 06:50:18;;;;;;;;;;;;;;;;;;5093770;28;20019;-77
2021/12/05 06:52:43;;;;;;;;;;;;;;;;;;5093993;28;20316;-76
2021/12/05 06:55:09;;;;;;;;;;;;;;;;;;5094488;28;19922;-77
2021/12/05 06:57:35;;;;;;;;;;;;;;;;;;5094935;28;19920;-77
2021/12/05 07:00:05;;;;;;;;;;;;;;;;;;5100746;28;19916;-78
2021/12/05 07:02:31;;;;;;;;;;;;;;;;;;5095556;28;19916;-81
2021/12/05 07:05:58;;;;;;;;;;;;;;;;;;5088094;28;20000;-79
2021/12/05 07:08:25;;;;;;;;;;;;;;;;;;5081494;28;20275;-79
2021/12/05 07:11:03;;;;;;;;;;;;;;;;;;5082687;28;19927;-79
2021/12/05 07:21:52;;;;;;;;;;;;;;;;;;5084338;28;19921;-79
2021/12/05 07:24:38;;;;;;;;;;;;;;;;;;5056522;28;19939;-79
2021/12/05 07:40:18;;;;;;;;;;;;;;;;;;5084686;28;19969;-79
2021/12/05 07:40:45;;;;;;;;;;;;;;;;;;5110156;28;19916;-79
2021/12/05 07:43:12;;;;;;;;;;;;;;;;;;5107399;28;19965;-79
2021/12/05 07:45:44;;;;;;;;;;;;;;;;;;5108758;28;19920;-78
2021/12/05 07:48:14;;;;;;;;;;;;;;;;;;5105048;28;19974;-77
2021/12/05 07:50:52;;;;;;;;;;;;;;;;;;5105035;28;19928;-78
2021/12/05 07:53:24;;;;;;;;;;;;;;;;;;5107660;28;19931;-80
2021/12/05 07:55:53;;;;;;;;;;;;;;;;;;5110657;28;19916;-79
2021/12/05 07:58:44;;;;;;;;;;;;;;;;;;5111811;28;19916;-79
2021/12/05 08:14:48;;;;;;;;;;;;;;;;;;5084651;28;19916;-80
2021/12/05 08:17:17;;;;;;;;;;;;;;;;;;5084837;28;19920;-80
2021/12/05 08:19:43;;;;;;;;;;;;;;;;;;5066815;28;20398;-78
2021/12/05 08:22:08;;;;;;;;;;;;;;;;;;5087473;28;20007;-79
2021/12/05 08:24:36;;;;;;;;;;;;;;;;;;5084376;28;19959;-77
2021/12/05 08:27:04;;;;;;;;;;;;;;;;;;5083814;28;19948;-78
2021/12/05 08:29:38;;;;;;;;;;;;;;;;;;5085341;28;19927;-78
2021/12/05 08:32:27;;;;;;;;;;;;;;;;;;5085042;28;19938;-78
2021/12/05 08:43:37;;;;;;;;;;;;;;;;;;5125253;28;19916;-82
2021/12/05 09:26:40;;;;;;;;;;;;;;;;;;5103093;28;20285;-77
2021/12/05 10:11:49;;;;;;;;;;;;;;;;;;5105429;28;19916;-78
2021/12/05 10:33:45;;;;;;;;;;;;;;;;;;5105554;28;20326;-79
2021/12/05 10:36:19;;;;;;;;;;;;;;;;;;5100444;28;19924;-77
2021/12/05 10:38:50;;;;;;;;;;;;;;;;;;5080690;28;19927;-81
2021/12/05 10:41:23;;;;;;;;;;;;;;;;;;5098250;28;19916;-79
2021/12/05 10:43:50;;;;;;;;;;;;;;;;;;5099808;28;19923;-79
2021/12/05 10:46:17;;;;;;;;;;;;;;;;;;5102893;28;20301;-79
2021/12/05 10:48:42;;;;;;;;;;;;;;;;;;5099301;28;19950;-78
2021/12/05 10:51:09;;;;;;;;;;;;;;;;;;5098899;28;19920;-80
2021/12/05 10:53:40;;;;;;;;;;;;;;;;;;5101706;28;19920;-78
2021/12/05 10:56:22;;;;;;;;;;;;;;;;;;5100311;28;19923;-78
2021/12/05 10:58:49;;;;;;;;;;;;;;;;;;5098886;28;19916;-79
2021/12/05 11:01:21;;;;;;;;;;;;;;;;;;5102692;28;19920;-77
2021/12/05 11:03:47;;;;;;;;;;;;;;;;;;5100333;28;19920;-77
2021/12/05 11:06:24;;;;;;;;;;;;;;;;;;5102850;28;20326;-77
2021/12/05 11:08:54;;;;;;;;;;;;;;;;;;5104134;28;19916;-78
2021/12/05 11:11:19;;;;;;;;;;;;;;;;;;5107864;28;19970;-78
2021/12/05 11:13:45;;;;;;;;;;;;;;;;;;5109917;28;19912;-78
2021/12/05 11:16:29;;;;;;;;;;;;;;;;;;5103978;28;19916;-81
2021/12/05 11:18:54;;;;;;;;;;;;;;;;;;5100037;28;19927;-81
2021/12/05 11:21:25;;;;;;;;;;;;;;;;;;5086473;28;19920;-80
2021/12/05 11:24:10;;;;;;;;;;;;;;;;;;5102749;28;19952;-79
2021/12/05 11:26:35;;;;;;;;;;;;;;;;;;5101674;28;19923;-79
2021/12/05 11:29:01;;;;;;;;;;;;;;;;;;5102179;28;19916;-79
2021/12/05 11:31:27;;;;;;;;;;;;;;;;;;5104633;28;19922;-79
2021/12/05 11:33:55;;;;;;;;;;;;;;;;;;5101193;28;20015;-81
2021/12/05 11:36:25;;;;;;;;;;;;;;;;;;5103870;28;19942;-79
2021/12/05 11:38:50;;;;;;;;;;;;;;;;;;5103025;28;20301;-78
2021/12/05 11:41:20;;;;;;;;;;;;;;;;;;5103563;28;19912;-82
2021/12/05 11:43:45;;;;;;;;;;;;;;;;;;5085090;28;19923;-80
2021/12/05 11:46:20;;;;;;;;;;;;;;;;;;5101950;28;19920;-80
2021/12/05 11:48:46;;;;;;;;;;;;;;;;;;5097572;28;19916;-77
2021/12/05 11:51:17;;;;;;;;;;;;;;;;;;5095644;28;20006;-78
2021/12/05 11:53:44;;;;;;;;;;;;;;;;;;5095223;28;20008;-78
2021/12/05 11:56:15;;;;;;;;;;;;;;;;;;5097782;28;19926;-78
2021/12/05 11:58:41;;;;;;;;;;;;;;;;;;5096500;28;19916;-77
2021/12/05 12:01:09;;;;;;;;;;;;;;;;;;5096788;28;20015;-77
2021/12/05 12:03:35;;;;;;;;;;;;;;;;;;5100087;28;19916;-81
2021/12/05 12:06:01;;;;;;;;;;;;;;;;;;5107899;28;19991;-81
2021/12/05 12:08:26;;;;;;;;;;;;;;;;;;5105676;28;19923;-80
2021/12/05 12:10:57;;;;;;;;;;;;;;;;;;5105892;28;19958;-79
2021/12/05 12:13:25;;;;;;;;;;;;;;;;;;5103207;28;20301;-80
2021/12/05 12:15:58;;;;;;;;;;;;;;;;;;5104282;28;19916;-80
2021/12/05 12:18:28;;;;;;;;;;;;;;;;;;5103934;28;19922;-78
2021/12/05 12:20:54;;;;;;;;;;;;;;;;;;5099819;28;19938;-79
2021/12/05 12:23:20;;;;;;;;;;;;;;;;;;5103987;28;20003;-80
2021/12/05 12:25:48;;;;;;;;;;;;;;;;;;5102086;28;19916;-80
2021/12/05 12:28:13;;;;;;;;;;;;;;;;;;5101936;28;20011;-79
2021/12/05 12:30:41;;;;;;;;;;;;;;;;;;5101473;28;19947;-77
2021/12/05 12:33:13;;;;;;;;;;;;;;;;;;5100334;28;19916;-77
2021/12/05 12:35:39;;;;;;;;;;;;;;;;;;5097006;28;19916;-78
2021/12/05 12:38:08;;;;;;;;;;;;;;;;;;5094965;28;19927;-77
2021/12/05 12:40:33;;;;;;;;;;;;;;;;;;5096996;28;20003;-79
2021/12/05 12:42:58;;;;;;;;;;;;;;;;;;5101170;28;19958;-79
2021/12/05 12:45:24;;;;;;;;;;;;;;;;;;5107989;28;19946;-79
2021/12/05 12:47:58;;;;;;;;;;;;;;;;;;5101108;28;19916;-77
2021/12/05 12:50:27;;;;;;;;;;;;;;;;;;5097623;28;19920;-77
2021/12/05 12:53:01;;;;;;;;;;;;;;;;;;5101825;28;19924;-78
2021/12/05 12:55:31;;;;;;;;;;;;;;;;;;5100078;28;20049;-78
2021/12/05 12:57:56;;;;;;;;;;;;;;;;;;5101117;28;19916;-78
2021/12/05 13:00:24;;;;;;;;;;;;;;;;;;5099912;28;20408;-78
2021/12/05 13:07:22;;;;;;;;;;;;;;;;;;5097076;28;19916;-77
2021/12/05 13:11:13;;;;;;;;;;;;;;;;;;5104072;28;20002;-78
2021/12/05 13:13:40;;;;;;;;;;;;;;;;;;5101815;28;19922;-78
2021/12/05 13:16:08;;;;;;;;;;;;;;;;;;5102914;28;19916;-78
2021/12/05 13:18:36;;;;;;;;;;;;;;;;;;5105669;28;19923;-78
2021/12/05 13:21:07;;;;;;;;;;;;;;;;;;5104267;28;19916;-78
2021/12/05 13:23:44;;;;;;;;;;;;;;;;;;5103960;28;19916;-77
2021/12/05 13:26:33;;;;;;;;;;;;;;;;;;5104908;28;19916;-78
2021/12/05 13:29:11;;;;;;;;;;;;;;;;;;5095612;28;20408;-78
2021/12/05 13:31:57;;;;;;;;;;;;;;;;;;5097279;28;20365;-77
2021/12/05 13:34:22;;;;;;;;;;;;;;;;;;5086375;28;19916;-77
2021/12/05 13:36:49;;;;;;;;;;;;;;;;;;5095722;28;20007;-77
2021/12/05 13:39:29;;;;;;;;;;;;;;;;;;5095612;28;19916;-77
2021/12/05 13:42:09;;;;;;;;;;;;;;;;;;5096129;28;19920;-76
2021/12/05 13:44:53;;;;;;;;;;;;;;;;;;5095867;28;19926;-77
2021/12/05 13:47:19;;;;;;;;;;;;;;;;;;5096130;28;19919;-77
2021/12/05 13:49:45;;;;;;;;;;;;;;;;;;5096328;28;19931;-77
2021/12/05 13:52:35;;;;;;;;;;;;;;;;;;5094908;28;19922;-78
2021/12/05 13:55:20;;;;;;;;;;;;;;;;;;5096798;28;20370;-76
2021/12/05 13:58:04;;;;;;;;;;;;;;;;;;5095096;28;19919;-78
2021/12/05 14:00:49;;;;;;;;;;;;;;;;;;5094478;28;19916;-76
2021/12/05 14:03:34;;;;;;;;;;;;;;;;;;5095378;28;19965;-77
2021/12/05 14:06:00;;;;;;;;;;;;;;;;;;5080003;28;19970;-77
2021/12/05 14:08:25;;;;;;;;;;;;;;;;;;5075007;28;19912;-76
2021/12/05 14:10:50;;;;;;;;;;;;;;;;;;5074273;28;19921;-77
2021/12/05 14:13:20;;;;;;;;;;;;;;;;;;5073970;28;19916;-76
2021/12/05 14:15:45;;;;;;;;;;;;;;;;;;5074082;28;19960;-76
2021/12/05 14:18:18;;;;;;;;;;;;;;;;;;5074125;28;20428;-76
2021/12/05 14:20:43;;;;;;;;;;;;;;;;;;5074161;28;20023;-76
2021/12/05 14:23:19;;;;;;;;;;;;;;;;;;5074261;28;20357;-76
2021/12/05 14:25:44;;;;;;;;;;;;;;;;;;5073864;28;20416;-76
2021/12/05 14:28:10;;;;;;;;;;;;;;;;;;5073891;28;19920;-76
2021/12/05 14:30:35;;;;;;;;;;;;;;;;;;5073826;28;20012;-76
2021/12/05 14:33:02;;;;;;;;;;;;;;;;;;5073845;28;19916;-76
2021/12/05 14:35:38;;;;;;;;;;;;;;;;;;5077651;28;19960;-76
2021/12/05 14:38:06;;;;;;;;;;;;;;;;;;5094216;28;19916;-76
2021/12/05 14:40:32;;;;;;;;;;;;;;;;;;5093614;28;20302;-76
2021/12/05 14:43:00;;;;;;;;;;;;;;;;;;5098407;28;19939;-76
2021/12/05 14:45:27;;;;;;;;;;;;;;;;;;5113747;28;20359;-76
2021/12/05 14:47:54;;;;;;;;;;;;;;;;;;5114228;28;19960;-76
2021/12/05 14:50:21;;;;;;;;;;;;;;;;;;5112318;28;19924;-76
2021/12/05 14:52:49;;;;;;;;;;;;;;;;;;5112211;28;20381;-76
2021/12/05 14:55:18;;;;;;;;;;;;;;;;;;5113002;28;19960;-76
2021/12/05 14:58:04;;;;;;;;;;;;;;;;;;5112263;28;19919;-76
2021/12/05 15:00:32;;;;;;;;;;;;;;;;;;5112316;28;20063;-75
2021/12/05 15:03:01;;;;;;;;;;;;;;;;;;5113526;28;20376;-76
2021/12/05 15:05:26;;;;;;;;;;;;;;;;;;5114008;28;19922;-76
2021/12/05 15:07:58;;;;;;;;;;;;;;;;;;5112931;28;20289;-75
2021/12/05 15:10:24;;;;;;;;;;;;;;;;;;5093263;28;19921;-75
2021/12/05 15:12:52;;;;;;;;;;;;;;;;;;5093811;28;19916;-76
2021/12/05 15:15:17;;;;;;;;;;;;;;;;;;5093949;28;20370;-77
2021/12/05 15:17:43;;;;;;;;;;;;;;;;;;5092330;28;20019;-76
2021/12/05 15:20:10;;;;;;;;;;;;;;;;;;5091237;28;19916;-76
2021/12/05 15:22:36;;;;;;;;;;;;;;;;;;5092769;28;19920;-76
2021/12/05 15:25:04;;;;;;;;;;;;;;;;;;5091776;28;19969;-76
2021/12/05 15:27:31;;;;;;;;;;;;;;;;;;5093730;28;19922;-80
2021/12/05 15:30:06;;;;;;;;;;;;;;;;;;5092713;28;19932;-76
2021/12/05 15:32:32;;;;;;;;;;;;;;;;;;5092835;28;19916;-76
2021/12/05 15:34:59;;;;;;;;;;;;;;;;;;5093451;28;20381;-77
2021/12/05 15:37:25;;;;;;;;;;;;;;;;;;5092667;28;19942;-77
2021/12/05 15:39:54;;;;;;;;;;;;;;;;;;5091441;28;19916;-77
2021/12/05 15:42:27;;;;;;;;;;;;;;;;;;5093305;28;19923;-77
2021/12/05 15:44:53;;;;;;;;;;;;;;;;;;5092177;28;19978;-76
2021/12/05 15:47:26;;;;;;;;;;;;;;;;;;5092847;28;20366;-76
2021/12/05 15:49:51;;;;;;;;;;;;;;;;;;5092522;28;19920;-77
2021/12/05 15:52:21;;;;;;;;;;;;;;;;;;5090601;28;19916;-77
2021/12/05 15:54:46;;;;;;;;;;;;;;;;;;5093233;28;19916;-77
2021/12/05 15:57:20;;;;;;;;;;;;;;;;;;5093382;28;19970;-77
2021/12/05 15:59:46;;;;;;;;;;;;;;;;;;5096719;28;20494;-77
2021/12/05 16:02:15;;;;;;;;;;;;;;;;;;5096903;28;20007;-77
2021/12/05 16:04:40;;;;;;;;;;;;;;;;;;5106381;28;19923;-77
2021/12/05 16:07:10;;;;;;;;;;;;;;;;;;5119333;28;19916;-77
2021/12/05 16:09:36;;;;;;;;;;;;;;;;;;5117303;28;19923;-77
2021/12/05 16:12:09;;;;;;;;;;;;;;;;;;5105935;28;19916;-77
2021/12/05 16:14:36;;;;;;;;;;;;;;;;;;5096584;28;20266;-77
2021/12/05 16:17:12;;;;;;;;;;;;;;;;;;5078128;28;19922;-77
2021/12/05 16:20:00;;;;;;;;;;;;;;;;;;5096710;28;19916;-77
2021/12/05 16:22:25;;;;;;;;;;;;;;;;;;5105386;28;20432;-77
2021/12/05 16:24:50;;;;;;;;;;;;;;;;;;5116903;28;19951;-77
2021/12/05 16:27:16;;;;;;;;;;;;;;;;;;5110756;28;19916;-77
2021/12/05 16:29:41;;;;;;;;;;;;;;;;;;5095153;28;19963;-76
2021/12/05 16:32:06;;;;;;;;;;;;;;;;;;5096520;28;19984;-77
2021/12/05 16:34:33;;;;;;;;;;;;;;;;;;5095803;28;19927;-77
2021/12/05 16:37:00;;;;;;;;;;;;;;;;;;5116372;28;20396;-77
2021/12/05 16:39:31;;;;;;;;;;;;;;;;;;5116363;28;19916;-76
2021/12/05 16:42:01;;;;;;;;;;;;;;;;;;5115102;28;19915;-76
2021/12/05 16:44:28;;;;;;;;;;;;;;;;;;5114878;28;20007;-77
2021/12/05 16:46:58;;;;;;;;;;;;;;;;;;5112215;28;20370;-75
2021/12/05 16:49:30;;;;;;;;;;;;;;;;;;5095650;28;19923;-75
2021/12/05 16:51:57;;;;;;;;;;;;;;;;;;5095221;28;19927;-75
2021/12/05 16:54:28;;;;;;;;;;;;;;;;;;5093335;28;19923;-75
2021/12/05 16:57:08;;;;;;;;;;;;;;;;;;5094122;28;19970;-75
2021/12/05 16:59:45;;;;;;;;;;;;;;;;;;5095579;28;20305;-76
2021/12/05 17:02:13;;;;;;;;;;;;;;;;;;5115322;27;19915;-76
2021/12/05 17:05:06;;;;;;;;;;;;;;;;;;5114331;28;20014;-75
2021/12/05 17:07:35;;;;;;;;;;;;;;;;;;5073974;28;19995;-76
2021/12/05 17:10:01;;;;;;;;;;;;;;;;;;5075484;28;19920;-76
2021/12/05 17:12:27;;;;;;;;;;;;;;;;;;5078464;28;19918;-75
2021/12/05 17:15:09;;;;;;;;;;;;;;;;;;5096004;28;20010;-77
2021/12/05 17:17:35;;;;;;;;;;;;;;;;;;5094408;28;19916;-75
2021/12/05 17:20:19;;;;;;;;;;;;;;;;;;5095755;28;19923;-75
2021/12/05 17:22:55;;;;;;;;;;;;;;;;;;5095492;28;20136;-76
2021/12/05 17:25:28;;;;;;;;;;;;;;;;;;5094226;28;19942;-76
2021/12/05 17:27:53;;;;;;;;;;;;;;;;;;5093138;28;19922;-76
2021/12/05 17:30:19;;;;;;;;;;;;;;;;;;5084128;28;19920;-75
2021/12/05 17:32:44;;;;;;;;;;;;;;;;;;5074030;28;19920;-77
2021/12/05 17:35:10;;;;;;;;;;;;;;;;;;5093495;28;19916;-75
2021/12/05 17:37:35;;;;;;;;;;;;;;;;;;5095424;28;19955;-77
2021/12/05 17:40:04;;;;;;;;;;;;;;;;;;5094200;28;19924;-76
2021/12/05 17:42:32;;;;;;;;;;;;;;;;;;5095099;28;19916;-76
2021/12/05 17:45:07;;;;;;;;;;;;;;;;;;5094832;28;19928;-76
2021/12/05 17:47:32;;;;;;;;;;;;;;;;;;5092811;28;19916;-77
2021/12/05 17:49:59;;;;;;;;;;;;;;;;;;5083275;28;20301;-76
2021/12/05 17:52:25;;;;;;;;;;;;;;;;;;5084640;28;19927;-76
2021/12/05 17:54:57;;;;;;;;;;;;;;;;;;5083169;28;19969;-77
2021/12/05 17:57:34;;;;;;;;;;;;;;;;;;5081574;28;19931;-76
2021/12/05 18:00:13;;;;;;;;;;;;;;;;;;5083889;28;19916;-77
2021/12/05 18:02:44;;;;;;;;;;;;;;;;;;5082990;28;19962;-76
2021/12/05 18:05:13;;;;;;;;;;;;;;;;;;5084427;28;20392;-77
2021/12/05 18:07:41;;;;;;;;;;;;;;;;;;5082181;28;19924;-77
2021/12/05 18:10:07;;;;;;;;;;;;;;;;;;5091391;28;19928;-77
2021/12/05 18:12:34;;;;;;;;;;;;;;;;;;5083054;28;20289;-77
2021/12/05 18:15:01;;;;;;;;;;;;;;;;;;5085585;28;19916;-77
2021/12/05 18:17:29;;;;;;;;;;;;;;;;;;5085876;28;19916;-77
2021/12/05 18:19:55;;;;;;;;;;;;;;;;;;5082072;28;19923;-77
2021/12/05 18:22:20;;;;;;;;;;;;;;;;;;5088013;28;19916;-77
2021/12/05 18:24:46;;;;;;;;;;;;;;;;;;5093136;28;19912;-77
2021/12/05 18:27:12;;;;;;;;;;;;;;;;;;5082153;28;20049;-77
2021/12/05 18:29:38;;;;;;;;;;;;;;;;;;5083357;28;20396;-78
2021/12/05 18:32:04;;;;;;;;;;;;;;;;;;5087707;28;20007;-77
2021/12/05 18:34:32;;;;;;;;;;;;;;;;;;5084128;28;20304;-77
2021/12/05 18:36:59;;;;;;;;;;;;;;;;;;5082626;28;19917;-77
2021/12/05 18:39:28;;;;;;;;;;;;;;;;;;5084717;28;19924;-77
2021/12/05 18:41:56;;;;;;;;;;;;;;;;;;5085354;28;19931;-77
2021/12/05 18:44:27;;;;;;;;;;;;;;;;;;5087451;28;19966;-76
2021/12/05 18:46:55;;;;;;;;;;;;;;;;;;5072003;28;19920;-76
2021/12/05 18:49:26;;;;;;;;;;;;;;;;;;5083656;28;19931;-76
2021/12/05 18:51:52;;;;;;;;;;;;;;;;;;5083142;28;19917;-76
2021/12/05 18:54:21;;;;;;;;;;;;;;;;;;5083027;28;19930;-76
2021/12/05 18:56:47;;;;;;;;;;;;;;;;;;5083939;28;19934;-76
2021/12/05 18:59:16;;;;;;;;;;;;;;;;;;5082592;28;20379;-76
2021/12/05 19:04:39;;;;;;;;;;;;;;;;;;5081694;28;19923;-76
2021/12/05 19:07:10;;;;;;;;;;;;;;;;;;5080998;28;19922;-76
2021/12/05 19:12:15;;;;;;;;;;;;;;;;;;5083094;28;19923;-77
2021/12/05 19:14:42;;;;;;;;;;;;;;;;;;5081223;28;19923;-77
2021/12/05 19:17:15;;;;;;;;;;;;;;;;;;5083999;28;19978;-77
2021/12/05 19:19:41;;;;;;;;;;;;;;;;;;5083606;28;19951;-77
2021/12/05 19:22:15;;;;;;;;;;;;;;;;;;5081109;28;20311;-77
2021/12/05 19:24:42;;;;;;;;;;;;;;;;;;5082188;28;19916;-77
2021/12/05 19:27:07;;;;;;;;;;;;;;;;;;5084130;28;19916;-76
2021/12/05 19:29:34;;;;;;;;;;;;;;;;;;5083672;28;19928;-77
2021/12/05 19:32:00;;;;;;;;;;;;;;;;;;5087389;28;19987;-76
2021/12/05 19:34:26;;;;;;;;;;;;;;;;;;5096631;28;19962;-76
2021/12/05 19:36:52;;;;;;;;;;;;;;;;;;5097523;28;19916;-77
2021/12/05 19:39:19;;;;;;;;;;;;;;;;;;5097595;28;20418;-77
2021/12/05 19:41:44;;;;;;;;;;;;;;;;;;5095473;28;20388;-76
2021/12/05 19:44:10;;;;;;;;;;;;;;;;;;5097380;28;19916;-77
2021/12/05 19:46:37;;;;;;;;;;;;;;;;;;5097089;28;19927;-77
2021/12/05 19:49:04;;;;;;;;;;;;;;;;;;5096341;28;19916;-77
2021/12/05 19:51:29;;;;;;;;;;;;;;;;;;5097193;28;19920;-76
2021/12/05 19:53:55;;;;;;;;;;;;;;;;;;5095483;28;19942;-77
2021/12/05 19:56:21;;;;;;;;;;;;;;;;;;5095731;28;19916;-76
2021/12/05 19:58:47;;;;;;;;;;;;;;;;;;5095540;28;19916;-77
2021/12/05 20:01:13;;;;;;;;;;;;;;;;;;5097238;28;19922;-77
2021/12/05 20:03:40;;;;;;;;;;;;;;;;;;5096899;28;20335;-77
2021/12/05 20:06:06;;;;;;;;;;;;;;;;;;5094899;28;19926;-77
2021/12/05 20:08:31;;;;;;;;;;;;;;;;;;5096728;28;19916;-77
2021/12/05 20:10:59;;;;;;;;;;;;;;;;;;5094830;28;20002;-77
2021/12/05 20:13:25;;;;;;;;;;;;;;;;;;5096913;28;19916;-77
2021/12/05 20:15:50;;;;;;;;;;;;;;;;;;5094248;28;19924;-76
2021/12/05 20:18:16;;;;;;;;;;;;;;;;;;5081870;28;19989;-77
2021/12/05 20:20:43;;;;;;;;;;;;;;;;;;5076655;28;19916;-77
2021/12/05 20:23:09;;;;;;;;;;;;;;;;;;5076520;28;20003;-76
2021/12/05 20:25:38;;;;;;;;;;;;;;;;;;5071442;28;19926;-77
2021/12/05 20:28:03;;;;;;;;;;;;;;;;;;5096810;28;19934;-77
2021/12/05 20:30:29;;;;;;;;;;;;;;;;;;5095826;28;20483;-76
2021/12/05 20:32:58;;;;;;;;;;;;;;;;;;5095494;28;19959;-77
2021/12/05 20:35:27;;;;;;;;;;;;;;;;;;5096497;28;19923;-77
2021/12/05 20:37:57;;;;;;;;;;;;;;;;;;5096465;28;20014;-77
2021/12/05 20:40:24;;;;;;;;;;;;;;;;;;5094013;28;19916;-77
2021/12/05 20:42:52;;;;;;;;;;;;;;;;;;5096427;28;19973;-77
2021/12/05 20:45:22;;;;;;;;;;;;;;;;;;5093839;28;20014;-77
2021/12/05 20:47:51;;;;;;;;;;;;;;;;;;5085065;28;19985;-77
2021/12/05 20:50:17;;;;;;;;;;;;;;;;;;5086614;28;19928;-77
2021/12/05 20:52:43;;;;;;;;;;;;;;;;;;5084680;28;20011;-77
2021/12/05 20:55:12;;;;;;;;;;;;;;;;;;5075263;28;19916;-77
2021/12/05 20:57:37;;;;;;;;;;;;;;;;;;5085758;28;19923;-77
2021/12/05 21:00:11;;;;;;;;;;;;;;;;;;5087705;28;19916;-77
2021/12/05 21:02:39;;;;;;;;;;;;;;;;;;5086299;28;19942;-77
2021/12/05 21:05:06;;;;;;;;;;;;;;;;;;5094898;28;19916;-77
2021/12/05 21:07:31;;;;;;;;;;;;;;;;;;5096370;28;19963;-77
2021/12/05 21:09:57;;;;;;;;;;;;;;;;;;5087675;28;20010;-77
2021/12/05 21:12:22;;;;;;;;;;;;;;;;;;5084787;28;19927;-77
2021/12/05 21:14:47;;;;;;;;;;;;;;;;;;5086094;28;19917;-77
2021/12/05 21:17:15;;;;;;;;;;;;;;;;;;5100826;28;19962;-78
2021/12/05 21:19:41;;;;;;;;;;;;;;;;;;5088030;28;19981;-77
2021/12/05 21:22:06;;;;;;;;;;;;;;;;;;5089858;28;19915;-78
2021/12/05 21:24:32;;;;;;;;;;;;;;;;;;5096308;28;19916;-78
2021/12/05 21:26:57;;;;;;;;;;;;;;;;;;5095181;28;19919;-78
2021/12/05 21:29:22;;;;;;;;;;;;;;;;;;5094382;28;20368;-77
2021/12/05 21:31:48;;;;;;;;;;;;;;;;;;5095361;28;19916;-77
2021/12/05 21:34:14;;;;;;;;;;;;;;;;;;5095150;28;19943;-77
2021/12/05 21:36:39;;;;;;;;;;;;;;;;;;5093949;28;19916;-77
2021/12/05 21:39:04;;;;;;;;;;;;;;;;;;5093607;28;19927;-77
2021/12/05 21:41:30;;;;;;;;;;;;;;;;;;5095012;28;19923;-77
2021/12/05 21:43:56;;;;;;;;;;;;;;;;;;5094650;28;19916;-78
2021/12/05 21:46:22;;;;;;;;;;;;;;;;;;5094583;28;19927;-77
2021/12/05 21:48:48;;;;;;;;;;;;;;;;;;5097119;28;20003;-78
2021/12/05 21:51:14;;;;;;;;;;;;;;;;;;5093670;28;20069;-78
2021/12/05 21:53:40;;;;;;;;;;;;;;;;;;5091730;28;20367;-77
2021/12/05 21:56:07;;;;;;;;;;;;;;;;;;5094764;28;20043;-78
2021/12/05 21:58:33;;;;;;;;;;;;;;;;;;5094924;28;19916;-77
2021/12/05 22:00:59;;;;;;;;;;;;;;;;;;5102805;28;19938;-77
2021/12/05 22:03:25;;;;;;;;;;;;;;;;;;5112434;28;19915;-77